sensor_id;sensor_type;location;lat;lon;timestamp;P1;durP1;ratioP1;P2;durP2;ratioP2
12846;SDS011;6492;48.128;8.320;2023-04-06T00:03:11;9.27;;;6.30;;
12846;SDS011;6492;48.128;8.320;2023-04-06T00:07:13;9.60;;;7.27;;
12846;SDS011;6492;48.128;8.320;2023-04-06T00:11:16;8.93;;;6.67;;
12846;SDS011;6492;48.128;8.320;2023-04-06T00:15:18;9.43;;;6.80;;
12846;SDS011;6492;48.128;8.320;2023-04-06T00:19:20;10.07;;;6.77;;
12846;SDS011;6492;48.128;8.320;2023-04-06T00:23:22;7.83;;;6.20;;
12846;SDS011;6492;48.128;8.320;2023-04-06T00:27:25;8.53;;;6.47;;
12846;SDS011;6492;48.128;8.320;2023-04-06T00:31:27;8.10;;;6.40;;
12846;SDS011;6492;48.128;8.320;2023-04-06T00:35:28;8.33;;;6.40;;
12846;SDS011;6492;48.128;8.320;2023-04-06T00:39:30;8.33;;;5.90;;
12846;SDS011;6492;48.128;8.320;2023-04-06T00:43:34;8.87;;;7.07;;
12846;SDS011;6492;48.128;8.320;2023-04-06T00:47:36;7.47;;;6.03;;
12846;SDS011;6492;48.128;8.320;2023-04-06T00:51:37;9.80;;;6.60;;
12846;SDS011;6492;48.128;8.320;2023-04-06T00:55:39;9.73;;;6.53;;
12846;SDS011;6492;48.128;8.320;2023-04-06T00:59:43;10.97;;;6.93;;
12846;SDS011;6492;48.128;8.320;2023-04-06T01:03:45;8.83;;;6.33;;
12846;SDS011;6492;48.128;8.320;2023-04-06T01:07:48;8.47;;;5.93;;
12846;SDS011;6492;48.128;8.320;2023-04-06T01:11:50;8.40;;;6.37;;
12846;SDS011;6492;48.128;8.320;2023-04-06T01:15:53;8.23;;;6.33;;
12846;SDS011;6492;48.128;8.320;2023-04-06T01:19:55;10.17;;;7.20;;
12846;SDS011;6492;48.128;8.320;2023-04-06T01:23:59;10.37;;;7.00;;
12846;SDS011;6492;48.128;8.320;2023-04-06T01:28:01;8.90;;;6.43;;
12846;SDS011;6492;48.128;8.320;2023-04-06T01:32:03;9.00;;;6.40;;
12846;SDS011;6492;48.128;8.320;2023-04-06T01:36:05;7.73;;;6.27;;
12846;SDS011;6492;48.128;8.320;2023-04-06T01:40:09;10.20;;;6.83;;
12846;SDS011;6492;48.128;8.320;2023-04-06T01:44:12;8.27;;;6.47;;
12846;SDS011;6492;48.128;8.320;2023-04-06T01:48:14;8.50;;;6.57;;
12846;SDS011;6492;48.128;8.320;2023-04-06T01:52:15;7.43;;;5.83;;
12846;SDS011;6492;48.128;8.320;2023-04-06T01:56:18;8.60;;;6.37;;
12846;SDS011;6492;48.128;8.320;2023-04-06T02:00:21;8.90;;;6.73;;
12846;SDS011;6492;48.128;8.320;2023-04-06T02:04:23;9.47;;;6.17;;
12846;SDS011;6492;48.128;8.320;2023-04-06T02:08:24;8.67;;;6.20;;
12846;SDS011;6492;48.128;8.320;2023-04-06T02:12:28;9.50;;;6.93;;
12846;SDS011;6492;48.128;8.320;2023-04-06T02:16:29;8.13;;;6.93;;
12846;SDS011;6492;48.128;8.320;2023-04-06T02:20:31;10.47;;;7.23;;
12846;SDS011;6492;48.128;8.320;2023-04-06T02:24:33;9.07;;;6.43;;
12846;SDS011;6492;48.128;8.320;2023-04-06T02:28:36;10.23;;;6.77;;
12846;SDS011;6492;48.128;8.320;2023-04-06T02:32:38;9.90;;;6.60;;
12846;SDS011;6492;48.128;8.320;2023-04-06T02:36:40;8.63;;;6.33;;
12846;SDS011;6492;48.128;8.320;2023-04-06T02:40:42;8.17;;;6.40;;
12846;SDS011;6492;48.128;8.320;2023-04-06T02:44:45;5.67;;;4.53;;
12846;SDS011;6492;48.128;8.320;2023-04-06T02:48:47;5.83;;;4.33;;
12846;SDS011;6492;48.128;8.320;2023-04-06T02:52:48;6.43;;;4.43;;
12846;SDS011;6492;48.128;8.320;2023-04-06T02:56:50;5.30;;;4.30;;
12846;SDS011;6492;48.128;8.320;2023-04-06T03:00:53;7.63;;;4.63;;
12846;SDS011;6492;48.128;8.320;2023-04-06T03:04:55;6.07;;;4.70;;
12846;SDS011;6492;48.128;8.320;2023-04-06T03:08:57;7.33;;;4.90;;
12846;SDS011;6492;48.128;8.320;2023-04-06T03:12:59;6.60;;;4.40;;
12846;SDS011;6492;48.128;8.320;2023-04-06T03:17:02;7.30;;;4.87;;
12846;SDS011;6492;48.128;8.320;2023-04-06T03:21:04;5.70;;;4.60;;
12846;SDS011;6492;48.128;8.320;2023-04-06T03:25:06;8.70;;;4.90;;
12846;SDS011;6492;48.128;8.320;2023-04-06T03:29:08;8.53;;;4.67;;
12846;SDS011;6492;48.128;8.320;2023-04-06T03:33:11;6.50;;;4.40;;
12846;SDS011;6492;48.128;8.320;2023-04-06T03:37:13;4.10;;;3.70;;
12846;SDS011;6492;48.128;8.320;2023-04-06T03:41:15;4.60;;;3.80;;
12846;SDS011;6492;48.128;8.320;2023-04-06T03:45:16;7.37;;;4.70;;
12846;SDS011;6492;48.128;8.320;2023-04-06T03:49:20;5.70;;;4.90;;
12846;SDS011;6492;48.128;8.320;2023-04-06T03:53:22;5.73;;;3.57;;
12846;SDS011;6492;48.128;8.320;2023-04-06T03:57:23;5.23;;;4.10;;
12846;SDS011;6492;48.128;8.320;2023-04-06T04:01:25;5.23;;;3.93;;
12846;SDS011;6492;48.128;8.320;2023-04-06T04:05:28;6.67;;;4.40;;
12846;SDS011;6492;48.128;8.320;2023-04-06T04:09:30;5.00;;;3.70;;
12846;SDS011;6492;48.128;8.320;2023-04-06T04:13:32;4.20;;;3.63;;
12846;SDS011;6492;48.128;8.320;2023-04-06T04:17:34;4.83;;;3.80;;
12846;SDS011;6492;48.128;8.320;2023-04-06T04:21:43;5.47;;;3.90;;
12846;SDS011;6492;48.128;8.320;2023-04-06T04:25:45;4.57;;;4.03;;
12846;SDS011;6492;48.128;8.320;2023-04-06T04:29:47;5.37;;;3.50;;
12846;SDS011;6492;48.128;8.320;2023-04-06T04:33:51;5.53;;;4.13;;
12846;SDS011;6492;48.128;8.320;2023-04-06T04:37:54;6.23;;;4.27;;
12846;SDS011;6492;48.128;8.320;2023-04-06T04:41:56;4.37;;;3.77;;
12846;SDS011;6492;48.128;8.320;2023-04-06T04:45:58;7.70;;;4.87;;
12846;SDS011;6492;48.128;8.320;2023-04-06T04:50:00;6.23;;;4.13;;
12846;SDS011;6492;48.128;8.320;2023-04-06T04:54:03;6.03;;;4.30;;
12846;SDS011;6492;48.128;8.320;2023-04-06T04:58:05;8.23;;;4.30;;
12846;SDS011;6492;48.128;8.320;2023-04-06T05:02:09;5.07;;;4.00;;
12846;SDS011;6492;48.128;8.320;2023-04-06T05:06:10;5.53;;;4.30;;
12846;SDS011;6492;48.128;8.320;2023-04-06T05:10:13;6.27;;;4.37;;
12846;SDS011;6492;48.128;8.320;2023-04-06T05:14:15;7.23;;;4.10;;
12846;SDS011;6492;48.128;8.320;2023-04-06T05:18:18;7.17;;;4.17;;
12846;SDS011;6492;48.128;8.320;2023-04-06T05:22:20;4.80;;;4.00;;
12846;SDS011;6492;48.128;8.320;2023-04-06T05:26:23;6.00;;;4.37;;
12846;SDS011;6492;48.128;8.320;2023-04-06T05:30:25;6.97;;;4.70;;
12846;SDS011;6492;48.128;8.320;2023-04-06T05:34:27;5.87;;;4.87;;
12846;SDS011;6492;48.128;8.320;2023-04-06T05:38:29;4.20;;;3.73;;
12846;SDS011;6492;48.128;8.320;2023-04-06T05:42:36;5.47;;;3.87;;
12846;SDS011;6492;48.128;8.320;2023-04-06T05:46:39;6.93;;;4.50;;
12846;SDS011;6492;48.128;8.320;2023-04-06T05:50:41;8.03;;;5.30;;
12846;SDS011;6492;48.128;8.320;2023-04-06T05:54:42;6.67;;;4.73;;
12846;SDS011;6492;48.128;8.320;2023-04-06T05:58:45;6.60;;;4.70;;
12846;SDS011;6492;48.128;8.320;2023-04-06T06:02:54;4.77;;;4.00;;
12846;SDS011;6492;48.128;8.320;2023-04-06T06:06:56;7.27;;;4.70;;
12846;SDS011;6492;48.128;8.320;2023-04-06T06:10:58;7.77;;;4.70;;
12846;SDS011;6492;48.128;8.320;2023-04-06T06:15:01;7.33;;;5.00;;
12846;SDS011;6492;48.128;8.320;2023-04-06T06:19:03;7.97;;;4.70;;
12846;SDS011;6492;48.128;8.320;2023-04-06T06:23:05;5.97;;;4.90;;
12846;SDS011;6492;48.128;8.320;2023-04-06T06:27:07;5.97;;;4.70;;
12846;SDS011;6492;48.128;8.320;2023-04-06T06:31:10;9.00;;;5.43;;
12846;SDS011;6492;48.128;8.320;2023-04-06T06:35:12;7.00;;;4.93;;
12846;SDS011;6492;48.128;8.320;2023-04-06T06:39:14;6.30;;;5.33;;
12846;SDS011;6492;48.128;8.320;2023-04-06T06:43:15;8.03;;;5.37;;
12846;SDS011;6492;48.128;8.320;2023-04-06T06:47:19;6.73;;;5.60;;
12846;SDS011;6492;48.128;8.320;2023-04-06T06:51:21;7.80;;;5.47;;
12846;SDS011;6492;48.128;8.320;2023-04-06T06:55:23;7.63;;;5.63;;
12846;SDS011;6492;48.128;8.320;2023-04-06T06:59:25;6.93;;;5.33;;
12846;SDS011;6492;48.128;8.320;2023-04-06T07:03:28;7.00;;;5.43;;
12846;SDS011;6492;48.128;8.320;2023-04-06T07:07:31;8.03;;;5.67;;
12846;SDS011;6492;48.128;8.320;2023-04-06T07:11:33;8.63;;;6.03;;
12846;SDS011;6492;48.128;8.320;2023-04-06T07:15:35;8.10;;;5.93;;
12846;SDS011;6492;48.128;8.320;2023-04-06T07:19:39;8.60;;;5.73;;
12846;SDS011;6492;48.128;8.320;2023-04-06T07:23:41;7.23;;;5.50;;
12846;SDS011;6492;48.128;8.320;2023-04-06T07:27:43;7.47;;;5.73;;
12846;SDS011;6492;48.128;8.320;2023-04-06T07:31:45;9.83;;;6.03;;
12846;SDS011;6492;48.128;8.320;2023-04-06T07:35:49;9.70;;;5.97;;
12846;SDS011;6492;48.128;8.320;2023-04-06T07:39:52;7.90;;;5.67;;
12846;SDS011;6492;48.128;8.320;2023-04-06T07:43:54;7.60;;;6.07;;
12846;SDS011;6492;48.128;8.320;2023-04-06T07:47:56;7.27;;;5.63;;
12846;SDS011;6492;48.128;8.320;2023-04-06T07:51:59;6.60;;;4.97;;
12846;SDS011;6492;48.128;8.320;2023-04-06T07:56:02;7.53;;;5.67;;
12846;SDS011;6492;48.128;8.320;2023-04-06T08:00:05;9.93;;;5.23;;
12846;SDS011;6492;48.128;8.320;2023-04-06T08:04:09;7.90;;;5.17;;
12846;SDS011;6492;48.128;8.320;2023-04-06T08:08:12;7.13;;;5.27;;
12846;SDS011;6492;48.128;8.320;2023-04-06T08:12:14;7.50;;;5.53;;
12846;SDS011;6492;48.128;8.320;2023-04-06T08:16:16;6.67;;;5.27;;
12846;SDS011;6492;48.128;8.320;2023-04-06T08:20:18;6.13;;;5.13;;
12846;SDS011;6492;48.128;8.320;2023-04-06T08:24:21;7.73;;;5.40;;
12846;SDS011;6492;48.128;8.320;2023-04-06T08:28:23;6.33;;;5.27;;
12846;SDS011;6492;48.128;8.320;2023-04-06T08:32:25;6.17;;;5.13;;
12846;SDS011;6492;48.128;8.320;2023-04-06T08:36:27;5.90;;;4.50;;
12846;SDS011;6492;48.128;8.320;2023-04-06T08:40:35;8.57;;;5.00;;
12846;SDS011;6492;48.128;8.320;2023-04-06T08:44:37;7.23;;;4.93;;
12846;SDS011;6492;48.128;8.320;2023-04-06T08:48:41;5.97;;;4.73;;
12846;SDS011;6492;48.128;8.320;2023-04-06T08:52:44;7.07;;;4.87;;
12846;SDS011;6492;48.128;8.320;2023-04-06T08:56:49;5.33;;;4.60;;
12846;SDS011;6492;48.128;8.320;2023-04-06T09:00:53;5.27;;;4.30;;
12846;SDS011;6492;48.128;8.320;2023-04-06T09:04:55;6.37;;;4.73;;
12846;SDS011;6492;48.128;8.320;2023-04-06T09:08:57;6.57;;;4.90;;
12846;SDS011;6492;48.128;8.320;2023-04-06T09:13:04;6.83;;;5.10;;
12846;SDS011;6492;48.128;8.320;2023-04-06T09:17:05;5.97;;;4.77;;
12846;SDS011;6492;48.128;8.320;2023-04-06T09:21:07;5.80;;;4.60;;
12846;SDS011;6492;48.128;8.320;2023-04-06T09:25:17;6.73;;;5.70;;
12846;SDS011;6492;48.128;8.320;2023-04-06T09:29:24;6.50;;;5.23;;
12846;SDS011;6492;48.128;8.320;2023-04-06T09:33:27;7.33;;;6.13;;
12846;SDS011;6492;48.128;8.320;2023-04-06T09:37:29;5.47;;;4.77;;
12846;SDS011;6492;48.128;8.320;2023-04-06T09:41:31;6.00;;;4.40;;
12846;SDS011;6492;48.128;8.320;2023-04-06T09:45:35;5.77;;;4.83;;
12846;SDS011;6492;48.128;8.320;2023-04-06T09:49:37;5.13;;;4.30;;
12846;SDS011;6492;48.128;8.320;2023-04-06T09:53:39;6.50;;;5.33;;
12846;SDS011;6492;48.128;8.320;2023-04-06T09:57:47;7.03;;;5.00;;
12846;SDS011;6492;48.128;8.320;2023-04-06T10:01:55;5.67;;;4.90;;
12846;SDS011;6492;48.128;8.320;2023-04-06T10:06:00;5.60;;;4.70;;
12846;SDS011;6492;48.128;8.320;2023-04-06T10:10:06;6.77;;;5.10;;
12846;SDS011;6492;48.128;8.320;2023-04-06T10:14:09;6.40;;;4.93;;
12846;SDS011;6492;48.128;8.320;2023-04-06T10:18:23;7.03;;;5.60;;
12846;SDS011;6492;48.128;8.320;2023-04-06T10:22:26;7.30;;;5.77;;
12846;SDS011;6492;48.128;8.320;2023-04-06T10:26:40;6.80;;;5.27;;
12846;SDS011;6492;48.128;8.320;2023-04-06T10:30:42;7.27;;;5.97;;
12846;SDS011;6492;48.128;8.320;2023-04-06T10:34:45;6.87;;;6.10;;
12846;SDS011;6492;48.128;8.320;2023-04-06T10:38:53;7.50;;;5.97;;
12846;SDS011;6492;48.128;8.320;2023-04-06T10:42:55;9.57;;;5.90;;
12846;SDS011;6492;48.128;8.320;2023-04-06T10:47:14;8.17;;;6.10;;
12846;SDS011;6492;48.128;8.320;2023-04-06T10:51:19;7.50;;;6.17;;
12846;SDS011;6492;48.128;8.320;2023-04-06T10:55:27;6.73;;;5.70;;
12846;SDS011;6492;48.128;8.320;2023-04-06T10:59:30;6.70;;;5.43;;
12846;SDS011;6492;48.128;8.320;2023-04-06T11:03:36;7.90;;;5.93;;
12846;SDS011;6492;48.128;8.320;2023-04-06T11:07:46;7.80;;;5.70;;
12846;SDS011;6492;48.128;8.320;2023-04-06T11:11:47;7.53;;;6.07;;
12846;SDS011;6492;48.128;8.320;2023-04-06T11:15:49;8.17;;;6.07;;
12846;SDS011;6492;48.128;8.320;2023-04-06T11:19:51;7.10;;;5.70;;
12846;SDS011;6492;48.128;8.320;2023-04-06T11:23:54;7.60;;;6.27;;
12846;SDS011;6492;48.128;8.320;2023-04-06T11:28:05;7.20;;;6.40;;
12846;SDS011;6492;48.128;8.320;2023-04-06T11:32:07;7.60;;;5.63;;
12846;SDS011;6492;48.128;8.320;2023-04-06T11:36:09;7.30;;;5.90;;
12846;SDS011;6492;48.128;8.320;2023-04-06T11:40:12;7.10;;;5.70;;
12846;SDS011;6492;48.128;8.320;2023-04-06T11:44:14;8.57;;;5.77;;
12846;SDS011;6492;48.128;8.320;2023-04-06T11:48:19;8.83;;;6.30;;
12846;SDS011;6492;48.128;8.320;2023-04-06T11:52:23;7.30;;;5.87;;
12846;SDS011;6492;48.128;8.320;2023-04-06T11:56:28;6.70;;;5.27;;
12846;SDS011;6492;48.128;8.320;2023-04-06T12:00:30;7.50;;;5.67;;
12846;SDS011;6492;48.128;8.320;2023-04-06T12:04:34;7.53;;;5.97;;
12846;SDS011;6492;48.128;8.320;2023-04-06T12:08:36;8.43;;;6.43;;
12846;SDS011;6492;48.128;8.320;2023-04-06T12:12:39;7.43;;;5.83;;
12846;SDS011;6492;48.128;8.320;2023-04-06T12:16:41;6.83;;;5.60;;
12846;SDS011;6492;48.128;8.320;2023-04-06T12:20:43;7.50;;;5.67;;
12846;SDS011;6492;48.128;8.320;2023-04-06T12:24:45;7.90;;;5.27;;
12846;SDS011;6492;48.128;8.320;2023-04-06T12:28:48;6.97;;;5.10;;
12846;SDS011;6492;48.128;8.320;2023-04-06T12:32:51;6.70;;;5.00;;
12846;SDS011;6492;48.128;8.320;2023-04-06T12:36:52;6.90;;;5.13;;
12846;SDS011;6492;48.128;8.320;2023-04-06T12:40:54;8.40;;;6.30;;
12846;SDS011;6492;48.128;8.320;2023-04-06T12:44:57;6.07;;;5.30;;
12846;SDS011;6492;48.128;8.320;2023-04-06T12:49:00;6.80;;;5.47;;
12846;SDS011;6492;48.128;8.320;2023-04-06T12:53:03;8.13;;;5.27;;
12846;SDS011;6492;48.128;8.320;2023-04-06T12:57:05;7.97;;;5.60;;
12846;SDS011;6492;48.128;8.320;2023-04-06T13:01:08;6.43;;;5.17;;
12846;SDS011;6492;48.128;8.320;2023-04-06T13:05:10;6.43;;;4.80;;
12846;SDS011;6492;48.128;8.320;2023-04-06T13:09:12;6.13;;;4.47;;
12846;SDS011;6492;48.128;8.320;2023-04-06T13:13:14;5.63;;;4.43;;
12846;SDS011;6492;48.128;8.320;2023-04-06T13:17:17;6.33;;;4.40;;
12846;SDS011;6492;48.128;8.320;2023-04-06T13:21:21;5.20;;;4.00;;
12846;SDS011;6492;48.128;8.320;2023-04-06T13:25:22;5.53;;;4.07;;
12846;SDS011;6492;48.128;8.320;2023-04-06T13:29:24;4.73;;;4.00;;
12846;SDS011;6492;48.128;8.320;2023-04-06T13:33:28;6.70;;;4.33;;
12846;SDS011;6492;48.128;8.320;2023-04-06T13:37:30;5.07;;;4.03;;
12846;SDS011;6492;48.128;8.320;2023-04-06T13:41:31;4.17;;;3.50;;
12846;SDS011;6492;48.128;8.320;2023-04-06T13:45:33;4.80;;;3.50;;
12846;SDS011;6492;48.128;8.320;2023-04-06T13:49:37;4.13;;;3.47;;
12846;SDS011;6492;48.128;8.320;2023-04-06T13:53:38;3.60;;;3.00;;
12846;SDS011;6492;48.128;8.320;2023-04-06T13:57:40;4.43;;;3.73;;
12846;SDS011;6492;48.128;8.320;2023-04-06T14:01:42;3.70;;;3.20;;
12846;SDS011;6492;48.128;8.320;2023-04-06T14:05:45;4.73;;;3.70;;
12846;SDS011;6492;48.128;8.320;2023-04-06T14:09:47;4.63;;;3.70;;
12846;SDS011;6492;48.128;8.320;2023-04-06T14:13:49;5.77;;;3.97;;
12846;SDS011;6492;48.128;8.320;2023-04-06T14:17:51;5.87;;;4.03;;
12846;SDS011;6492;48.128;8.320;2023-04-06T14:21:54;4.47;;;3.60;;
12846;SDS011;6492;48.128;8.320;2023-04-06T14:26:02;5.23;;;4.00;;
12846;SDS011;6492;48.128;8.320;2023-04-06T14:30:05;5.77;;;3.90;;
12846;SDS011;6492;48.128;8.320;2023-04-06T14:34:08;6.43;;;3.80;;
12846;SDS011;6492;48.128;8.320;2023-04-06T14:38:11;5.40;;;3.60;;
12846;SDS011;6492;48.128;8.320;2023-04-06T14:42:13;4.53;;;3.40;;
12846;SDS011;6492;48.128;8.320;2023-04-06T14:46:15;4.63;;;3.53;;
12846;SDS011;6492;48.128;8.320;2023-04-06T14:50:16;6.03;;;3.90;;
12846;SDS011;6492;48.128;8.320;2023-04-06T14:54:19;5.27;;;4.20;;
12846;SDS011;6492;48.128;8.320;2023-04-06T14:58:21;6.33;;;4.10;;
12846;SDS011;6492;48.128;8.320;2023-04-06T15:02:24;6.03;;;4.83;;
12846;SDS011;6492;48.128;8.320;2023-04-06T15:06:26;6.73;;;4.40;;
12846;SDS011;6492;48.128;8.320;2023-04-06T15:10:30;6.00;;;4.43;;
12846;SDS011;6492;48.128;8.320;2023-04-06T15:14:32;5.90;;;4.30;;
12846;SDS011;6492;48.128;8.320;2023-04-06T15:18:34;9.37;;;4.70;;
12846;SDS011;6492;48.128;8.320;2023-04-06T15:22:36;6.17;;;4.40;;
12846;SDS011;6492;48.128;8.320;2023-04-06T15:26:39;7.73;;;5.70;;
12846;SDS011;6492;48.128;8.320;2023-04-06T15:30:41;6.67;;;4.90;;
12846;SDS011;6492;48.128;8.320;2023-04-06T15:34:43;6.50;;;4.60;;
12846;SDS011;6492;48.128;8.320;2023-04-06T15:38:45;6.47;;;4.53;;
12846;SDS011;6492;48.128;8.320;2023-04-06T15:42:48;6.83;;;5.07;;
12846;SDS011;6492;48.128;8.320;2023-04-06T15:46:50;7.50;;;5.40;;
12846;SDS011;6492;48.128;8.320;2023-04-06T15:50:56;7.00;;;5.63;;
12846;SDS011;6492;48.128;8.320;2023-04-06T15:54:57;6.33;;;5.37;;
12846;SDS011;6492;48.128;8.320;2023-04-06T15:59:00;7.73;;;5.13;;
12846;SDS011;6492;48.128;8.320;2023-04-06T16:03:03;8.83;;;5.90;;
12846;SDS011;6492;48.128;8.320;2023-04-06T16:07:04;6.97;;;5.17;;
12846;SDS011;6492;48.128;8.320;2023-04-06T16:11:06;4.43;;;3.70;;
12846;SDS011;6492;48.128;8.320;2023-04-06T16:15:10;4.87;;;3.60;;
12846;SDS011;6492;48.128;8.320;2023-04-06T16:19:12;7.63;;;4.90;;
12846;SDS011;6492;48.128;8.320;2023-04-06T16:23:14;6.80;;;5.03;;
12846;SDS011;6492;48.128;8.320;2023-04-06T16:27:15;6.03;;;4.50;;
12846;SDS011;6492;48.128;8.320;2023-04-06T16:31:19;7.20;;;4.80;;
12846;SDS011;6492;48.128;8.320;2023-04-06T16:35:22;5.73;;;4.30;;
12846;SDS011;6492;48.128;8.320;2023-04-06T16:39:25;6.97;;;5.07;;
12846;SDS011;6492;48.128;8.320;2023-04-06T16:43:26;5.43;;;4.47;;
12846;SDS011;6492;48.128;8.320;2023-04-06T16:47:29;6.00;;;4.77;;
12846;SDS011;6492;48.128;8.320;2023-04-06T16:51:31;4.57;;;4.07;;
12846;SDS011;6492;48.128;8.320;2023-04-06T16:55:33;7.17;;;4.80;;
12846;SDS011;6492;48.128;8.320;2023-04-06T16:59:38;5.27;;;4.27;;
12846;SDS011;6492;48.128;8.320;2023-04-06T17:03:41;5.50;;;3.90;;
12846;SDS011;6492;48.128;8.320;2023-04-06T17:07:43;7.40;;;5.30;;
12846;SDS011;6492;48.128;8.320;2023-04-06T17:11:45;7.77;;;5.47;;
12846;SDS011;6492;48.128;8.320;2023-04-06T17:15:46;7.50;;;5.13;;
12846;SDS011;6492;48.128;8.320;2023-04-06T17:19:52;5.83;;;5.23;;
12846;SDS011;6492;48.128;8.320;2023-04-06T17:23:53;7.77;;;5.07;;
12846;SDS011;6492;48.128;8.320;2023-04-06T17:27:55;8.83;;;5.70;;
12846;SDS011;6492;48.128;8.320;2023-04-06T17:31:57;9.00;;;5.43;;
12846;SDS011;6492;48.128;8.320;2023-04-06T17:36:01;7.17;;;5.03;;
12846;SDS011;6492;48.128;8.320;2023-04-06T17:40:03;7.77;;;5.10;;
12846;SDS011;6492;48.128;8.320;2023-04-06T17:44:06;5.40;;;4.77;;
12846;SDS011;6492;48.128;8.320;2023-04-06T17:48:08;7.87;;;5.60;;
12846;SDS011;6492;48.128;8.320;2023-04-06T17:52:11;7.20;;;5.30;;
12846;SDS011;6492;48.128;8.320;2023-04-06T17:56:13;9.47;;;6.90;;
12846;SDS011;6492;48.128;8.320;2023-04-06T18:00:15;9.23;;;6.53;;
12846;SDS011;6492;48.128;8.320;2023-04-06T18:04:23;7.47;;;6.20;;
12846;SDS011;6492;48.128;8.320;2023-04-06T18:08:26;11.20;;;6.17;;
12846;SDS011;6492;48.128;8.320;2023-04-06T18:12:27;10.57;;;6.40;;
12846;SDS011;6492;48.128;8.320;2023-04-06T18:16:29;9.00;;;6.53;;
12846;SDS011;6492;48.128;8.320;2023-04-06T18:20:32;7.83;;;6.37;;
12846;SDS011;6492;48.128;8.320;2023-04-06T18:24:41;7.17;;;6.37;;
12846;SDS011;6492;48.128;8.320;2023-04-06T18:28:43;8.57;;;6.90;;
12846;SDS011;6492;48.128;8.320;2023-04-06T18:32:45;8.27;;;6.43;;
12846;SDS011;6492;48.128;8.320;2023-04-06T18:36:47;10.00;;;7.07;;
12846;SDS011;6492;48.128;8.320;2023-04-06T18:40:50;10.90;;;7.40;;
12846;SDS011;6492;48.128;8.320;2023-04-06T18:44:52;10.87;;;7.00;;
12846;SDS011;6492;48.128;8.320;2023-04-06T18:48:54;8.40;;;6.73;;
12846;SDS011;6492;48.128;8.320;2023-04-06T18:52:56;9.30;;;6.97;;
12846;SDS011;6492;48.128;8.320;2023-04-06T18:56:59;11.40;;;7.03;;
12846;SDS011;6492;48.128;8.320;2023-04-06T19:01:01;10.53;;;6.83;;
12846;SDS011;6492;48.128;8.320;2023-04-06T19:05:03;8.10;;;6.23;;
12846;SDS011;6492;48.128;8.320;2023-04-06T19:09:05;9.63;;;7.07;;
12846;SDS011;6492;48.128;8.320;2023-04-06T19:13:11;7.93;;;6.33;;
12846;SDS011;6492;48.128;8.320;2023-04-06T19:17:13;7.93;;;6.20;;
12846;SDS011;6492;48.128;8.320;2023-04-06T19:21:15;10.50;;;7.60;;
12846;SDS011;6492;48.128;8.320;2023-04-06T19:25:18;10.87;;;8.43;;
12846;SDS011;6492;48.128;8.320;2023-04-06T19:29:21;10.93;;;7.77;;
12846;SDS011;6492;48.128;8.320;2023-04-06T19:33:23;10.83;;;7.33;;
12846;SDS011;6492;48.128;8.320;2023-04-06T19:37:25;8.40;;;6.47;;
12846;SDS011;6492;48.128;8.320;2023-04-06T19:41:27;9.80;;;6.80;;
12846;SDS011;6492;48.128;8.320;2023-04-06T19:45:30;10.37;;;7.47;;
12846;SDS011;6492;48.128;8.320;2023-04-06T19:49:32;7.47;;;5.90;;
12846;SDS011;6492;48.128;8.320;2023-04-06T19:53:34;8.70;;;6.50;;
12846;SDS011;6492;48.128;8.320;2023-04-06T19:57:36;8.03;;;5.97;;
12846;SDS011;6492;48.128;8.320;2023-04-06T20:01:39;8.63;;;6.00;;
12846;SDS011;6492;48.128;8.320;2023-04-06T20:05:41;7.93;;;6.40;;
12846;SDS011;6492;48.128;8.320;2023-04-06T20:09:43;7.90;;;5.60;;
12846;SDS011;6492;48.128;8.320;2023-04-06T20:13:44;8.30;;;5.63;;
12846;SDS011;6492;48.128;8.320;2023-04-06T20:17:48;7.60;;;5.80;;
12846;SDS011;6492;48.128;8.320;2023-04-06T20:21:49;8.77;;;6.47;;
12846;SDS011;6492;48.128;8.320;2023-04-06T20:25:51;8.60;;;6.53;;
12846;SDS011;6492;48.128;8.320;2023-04-06T20:29:53;8.30;;;6.50;;
12846;SDS011;6492;48.128;8.320;2023-04-06T20:33:56;9.97;;;6.83;;
12846;SDS011;6492;48.128;8.320;2023-04-06T20:37:58;11.37;;;6.17;;
12846;SDS011;6492;48.128;8.320;2023-04-06T20:42:00;8.83;;;6.30;;
12846;SDS011;6492;48.128;8.320;2023-04-06T20:46:01;9.33;;;6.87;;
12846;SDS011;6492;48.128;8.320;2023-04-06T20:50:06;11.23;;;7.87;;
12846;SDS011;6492;48.128;8.320;2023-04-06T20:54:10;9.20;;;6.27;;
12846;SDS011;6492;48.128;8.320;2023-04-06T20:58:13;9.30;;;6.53;;
12846;SDS011;6492;48.128;8.320;2023-04-06T21:02:15;7.80;;;6.03;;
12846;SDS011;6492;48.128;8.320;2023-04-06T21:06:18;6.10;;;5.03;;
12846;SDS011;6492;48.128;8.320;2023-04-06T21:10:20;7.40;;;5.60;;
12846;SDS011;6492;48.128;8.320;2023-04-06T21:14:23;9.93;;;6.77;;
12846;SDS011;6492;48.128;8.320;2023-04-06T21:18:25;9.07;;;6.67;;
12846;SDS011;6492;48.128;8.320;2023-04-06T21:22:28;9.07;;;6.43;;
12846;SDS011;6492;48.128;8.320;2023-04-06T21:26:30;9.03;;;7.03;;
12846;SDS011;6492;48.128;8.320;2023-04-06T21:30:32;10.90;;;6.80;;
12846;SDS011;6492;48.128;8.320;2023-04-06T21:34:36;10.60;;;7.30;;
12846;SDS011;6492;48.128;8.320;2023-04-06T21:38:39;12.30;;;8.13;;
12846;SDS011;6492;48.128;8.320;2023-04-06T21:42:40;8.73;;;6.47;;
12846;SDS011;6492;48.128;8.320;2023-04-06T21:46:42;8.37;;;6.40;;
12846;SDS011;6492;48.128;8.320;2023-04-06T21:50:44;9.07;;;6.80;;
12846;SDS011;6492;48.128;8.320;2023-04-06T21:54:47;10.93;;;7.47;;
12846;SDS011;6492;48.128;8.320;2023-04-06T21:58:49;12.90;;;7.60;;
12846;SDS011;6492;48.128;8.320;2023-04-06T22:02:51;9.70;;;6.73;;
12846;SDS011;6492;48.128;8.320;2023-04-06T22:06:53;8.00;;;7.20;;
12846;SDS011;6492;48.128;8.320;2023-04-06T22:10:57;9.80;;;7.00;;
12846;SDS011;6492;48.128;8.320;2023-04-06T22:14:59;9.40;;;6.60;;
12846;SDS011;6492;48.128;8.320;2023-04-06T22:19:02;8.73;;;5.90;;
12846;SDS011;6492;48.128;8.320;2023-04-06T22:23:03;8.23;;;6.10;;
12846;SDS011;6492;48.128;8.320;2023-04-06T22:27:07;8.33;;;5.73;;
12846;SDS011;6492;48.128;8.320;2023-04-06T22:31:08;10.13;;;6.33;;
12846;SDS011;6492;48.128;8.320;2023-04-06T22:35:10;7.90;;;5.40;;
12846;SDS011;6492;48.128;8.320;2023-04-06T22:39:12;8.27;;;6.10;;
12846;SDS011;6492;48.128;8.320;2023-04-06T22:43:15;8.77;;;6.33;;
12846;SDS011;6492;48.128;8.320;2023-04-06T22:47:17;8.13;;;5.63;;
12846;SDS011;6492;48.128;8.320;2023-04-06T22:51:18;9.03;;;6.47;;
12846;SDS011;6492;48.128;8.320;2023-04-06T22:55:20;7.47;;;6.00;;
12846;SDS011;6492;48.128;8.320;2023-04-06T22:59:24;7.50;;;5.87;;
12846;SDS011;6492;48.128;8.320;2023-04-06T23:03:25;7.83;;;5.27;;
12846;SDS011;6492;48.128;8.320;2023-04-06T23:07:27;7.23;;;5.67;;
12846;SDS011;6492;48.128;8.320;2023-04-06T23:11:31;7.50;;;4.90;;
12846;SDS011;6492;48.128;8.320;2023-04-06T23:15:34;7.43;;;4.70;;
12846;SDS011;6492;48.128;8.320;2023-04-06T23:19:36;7.00;;;4.63;;
12846;SDS011;6492;48.128;8.320;2023-04-06T23:23:38;5.97;;;4.43;;
12846;SDS011;6492;48.128;8.320;2023-04-06T23:27:40;5.33;;;4.10;;
12846;SDS011;6492;48.128;8.320;2023-04-06T23:31:43;6.03;;;4.67;;
12846;SDS011;6492;48.128;8.320;2023-04-06T23:35:44;4.67;;;4.10;;
12846;SDS011;6492;48.128;8.320;2023-04-06T23:39:46;4.93;;;4.00;;
12846;SDS011;6492;48.128;8.320;2023-04-06T23:43:48;6.20;;;4.17;;
12846;SDS011;6492;48.128;8.320;2023-04-06T23:47:52;5.13;;;4.03;;
12846;SDS011;6492;48.128;8.320;2023-04-06T23:51:54;5.00;;;4.30;;
12846;SDS011;6492;48.128;8.320;2023-04-06T23:55:56;4.37;;;3.80;;
12846;SDS011;6492;48.128;8.320;2023-04-06T23:59:57;4.93;;;4.10;;
